sensor_id;sensor_type;location;lat;lon;timestamp;P1;durP1;ratioP1;P2;durP2;ratioP2
70558;SDS011;58108;48.094;11.838;2023-12-14T00:02:16;1.30;;;0.20;;
70558;SDS011;58108;48.094;11.838;2023-12-14T00:04:42;1.37;;;0.20;;
70558;SDS011;58108;48.094;11.838;2023-12-14T00:07:07;1.10;;;0.10;;
70558;SDS011;58108;48.094;11.838;2023-12-14T00:09:33;1.42;;;0.20;;
70558;SDS011;58108;48.094;11.838;2023-12-14T00:11:58;1.20;;;0.10;;
70558;SDS011;58108;48.094;11.838;2023-12-14T00:14:24;2.10;;;0.30;;
70558;SDS011;58108;48.094;11.838;2023-12-14T00:16:49;1.70;;;0.37;;
70558;SDS011;58108;48.094;11.838;2023-12-14T00:19:15;1.40;;;0.20;;
70558;SDS011;58108;48.094;11.838;2023-12-14T00:21:40;1.17;;;0.20;;
70558;SDS011;58108;48.094;11.838;2023-12-14T00:24:06;1.87;;;0.20;;
70558;SDS011;58108;48.094;11.838;2023-12-14T00:26:32;1.88;;;0.20;;
70558;SDS011;58108;48.094;11.838;2023-12-14T00:28:57;2.07;;;0.30;;
70558;SDS011;58108;48.094;11.838;2023-12-14T00:31:23;1.48;;;0.20;;
70558;SDS011;58108;48.094;11.838;2023-12-14T00:33:48;1.30;;;0.20;;
70558;SDS011;58108;48.094;11.838;2023-12-14T00:36:17;1.37;;;0.20;;
70558;SDS011;58108;48.094;11.838;2023-12-14T00:38:43;0.70;;;0.10;;
70558;SDS011;58108;48.094;11.838;2023-12-14T00:41:09;1.37;;;0.20;;
70558;SDS011;58108;48.094;11.838;2023-12-14T00:43:35;1.27;;;0.15;;
70558;SDS011;58108;48.094;11.838;2023-12-14T00:46:02;1.98;;;0.30;;
70558;SDS011;58108;48.094;11.838;2023-12-14T00:48:28;1.30;;;0.17;;
70558;SDS011;58108;48.094;11.838;2023-12-14T00:50:53;1.60;;;0.35;;
70558;SDS011;58108;48.094;11.838;2023-12-14T00:53:19;1.07;;;0.10;;
70558;SDS011;58108;48.094;11.838;2023-12-14T00:55:44;2.23;;;0.20;;
70558;SDS011;58108;48.094;11.838;2023-12-14T00:58:11;1.10;;;0.20;;
70558;SDS011;58108;48.094;11.838;2023-12-14T01:00:38;1.15;;;0.10;;
70558;SDS011;58108;48.094;11.838;2023-12-14T01:03:04;2.00;;;0.30;;
70558;SDS011;58108;48.094;11.838;2023-12-14T01:21:44;2.00;;;0.30;;
70558;SDS011;58108;48.094;11.838;2023-12-14T01:24:10;2.37;;;0.30;;
70558;SDS011;58108;48.094;11.838;2023-12-14T01:26:36;1.63;;;0.30;;
70558;SDS011;58108;48.094;11.838;2023-12-14T01:29:01;3.00;;;0.40;;
70558;SDS011;58108;48.094;11.838;2023-12-14T01:31:27;2.05;;;0.40;;
70558;SDS011;58108;48.094;11.838;2023-12-14T01:33:52;3.30;;;0.50;;
70558;SDS011;58108;48.094;11.838;2023-12-14T01:36:21;3.75;;;0.50;;
70558;SDS011;58108;48.094;11.838;2023-12-14T01:38:48;2.30;;;0.60;;
70558;SDS011;58108;48.094;11.838;2023-12-14T01:41:14;1.77;;;0.55;;
70558;SDS011;58108;48.094;11.838;2023-12-14T01:43:39;0.98;;;0.20;;
70558;SDS011;58108;48.094;11.838;2023-12-14T01:46:05;2.00;;;0.40;;
70558;SDS011;58108;48.094;11.838;2023-12-14T01:48:31;2.10;;;0.30;;
70558;SDS011;58108;48.094;11.838;2023-12-14T01:50:56;3.15;;;0.50;;
70558;SDS011;58108;48.094;11.838;2023-12-14T01:53:22;2.30;;;0.50;;
70558;SDS011;58108;48.094;11.838;2023-12-14T01:55:47;2.03;;;0.30;;
70558;SDS011;58108;48.094;11.838;2023-12-14T01:58:13;2.65;;;0.65;;
70558;SDS011;58108;48.094;11.838;2023-12-14T02:00:39;2.10;;;0.50;;
70558;SDS011;58108;48.094;11.838;2023-12-14T02:03:09;2.03;;;0.47;;
70558;SDS011;58108;48.094;11.838;2023-12-14T02:05:34;1.95;;;0.30;;
70558;SDS011;58108;48.094;11.838;2023-12-14T02:08:00;2.40;;;0.25;;
70558;SDS011;58108;48.094;11.838;2023-12-14T02:10:25;2.00;;;0.40;;
70558;SDS011;58108;48.094;11.838;2023-12-14T02:12:51;1.63;;;0.20;;
70558;SDS011;58108;48.094;11.838;2023-12-14T02:15:16;1.70;;;0.20;;
70558;SDS011;58108;48.094;11.838;2023-12-14T02:17:42;1.40;;;0.20;;
70558;SDS011;58108;48.094;11.838;2023-12-14T02:20:07;1.43;;;0.20;;
70558;SDS011;58108;48.094;11.838;2023-12-14T02:22:52;1.38;;;0.20;;
70558;SDS011;58108;48.094;11.838;2023-12-14T02:25:21;1.77;;;0.30;;
70558;SDS011;58108;48.094;11.838;2023-12-14T02:27:47;2.35;;;0.30;;
70558;SDS011;58108;48.094;11.838;2023-12-14T02:30:14;1.50;;;0.20;;
70558;SDS011;58108;48.094;11.838;2023-12-14T02:32:40;0.22;;;0.00;;
70558;SDS011;58108;48.094;11.838;2023-12-14T02:35:06;1.40;;;0.10;;
70558;SDS011;58108;48.094;11.838;2023-12-14T02:37:32;1.17;;;0.10;;
70558;SDS011;58108;48.094;11.838;2023-12-14T02:39:58;1.67;;;0.20;;
70558;SDS011;58108;48.094;11.838;2023-12-14T02:42:25;1.13;;;0.10;;
70558;SDS011;58108;48.094;11.838;2023-12-14T02:44:51;1.10;;;0.10;;
70558;SDS011;58108;48.094;11.838;2023-12-14T02:47:17;1.30;;;0.10;;
70558;SDS011;58108;48.094;11.838;2023-12-14T02:49:43;1.00;;;0.10;;
70558;SDS011;58108;48.094;11.838;2023-12-14T02:52:09;1.52;;;0.10;;
70558;SDS011;58108;48.094;11.838;2023-12-14T02:54:36;0.60;;;0.10;;
70558;SDS011;58108;48.094;11.838;2023-12-14T02:57:03;1.50;;;0.28;;
70558;SDS011;58108;48.094;11.838;2023-12-14T02:59:29;0.80;;;0.10;;
70558;SDS011;58108;48.094;11.838;2023-12-14T03:01:54;1.23;;;0.10;;
70558;SDS011;58108;48.094;11.838;2023-12-14T03:04:20;7.27;;;0.50;;
70558;SDS011;58108;48.094;11.838;2023-12-14T03:06:45;0.83;;;0.10;;
70558;SDS011;58108;48.094;11.838;2023-12-14T03:09:11;1.90;;;0.25;;
70558;SDS011;58108;48.094;11.838;2023-12-14T03:11:36;1.38;;;0.30;;
70558;SDS011;58108;48.094;11.838;2023-12-14T03:14:02;1.97;;;0.30;;
70558;SDS011;58108;48.094;11.838;2023-12-14T03:16:27;1.60;;;0.20;;
70558;SDS011;58108;48.094;11.838;2023-12-14T03:18:53;1.50;;;0.22;;
70558;SDS011;58108;48.094;11.838;2023-12-14T03:21:19;1.92;;;0.40;;
70558;SDS011;58108;48.094;11.838;2023-12-14T03:23:45;2.00;;;0.40;;
70558;SDS011;58108;48.094;11.838;2023-12-14T03:26:10;2.17;;;0.52;;
70558;SDS011;58108;48.094;11.838;2023-12-14T03:28:36;1.60;;;0.38;;
70558;SDS011;58108;48.094;11.838;2023-12-14T03:31:02;2.20;;;0.60;;
70558;SDS011;58108;48.094;11.838;2023-12-14T03:33:28;1.55;;;0.40;;
70558;SDS011;58108;48.094;11.838;2023-12-14T03:35:53;2.40;;;0.50;;
70558;SDS011;58108;48.094;11.838;2023-12-14T03:38:19;2.67;;;0.50;;
70558;SDS011;58108;48.094;11.838;2023-12-14T03:40:44;2.58;;;0.60;;
70558;SDS011;58108;48.094;11.838;2023-12-14T03:43:10;2.50;;;0.60;;
70558;SDS011;58108;48.094;11.838;2023-12-14T03:45:35;2.43;;;0.60;;
70558;SDS011;58108;48.094;11.838;2023-12-14T03:48:01;2.47;;;0.63;;
70558;SDS011;58108;48.094;11.838;2023-12-14T03:50:26;3.13;;;0.73;;
70558;SDS011;58108;48.094;11.838;2023-12-14T03:52:53;3.30;;;1.02;;
70558;SDS011;58108;48.094;11.838;2023-12-14T03:55:18;3.07;;;0.73;;
70558;SDS011;58108;48.094;11.838;2023-12-14T03:57:44;3.93;;;1.07;;
70558;SDS011;58108;48.094;11.838;2023-12-14T04:00:13;3.55;;;0.80;;
70558;SDS011;58108;48.094;11.838;2023-12-14T04:02:39;3.30;;;1.05;;
70558;SDS011;58108;48.094;11.838;2023-12-14T04:05:10;5.80;;;1.40;;
70558;SDS011;58108;48.094;11.838;2023-12-14T04:07:36;5.93;;;1.77;;
70558;SDS011;58108;48.094;11.838;2023-12-14T04:10:02;6.50;;;2.17;;
70558;SDS011;58108;48.094;11.838;2023-12-14T04:12:28;7.88;;;1.90;;
70558;SDS011;58108;48.094;11.838;2023-12-14T04:14:53;5.10;;;1.63;;
70558;SDS011;58108;48.094;11.838;2023-12-14T04:17:18;4.40;;;1.73;;
70558;SDS011;58108;48.094;11.838;2023-12-14T04:19:44;5.77;;;2.43;;
70558;SDS011;58108;48.094;11.838;2023-12-14T04:22:09;4.45;;;1.48;;
70558;SDS011;58108;48.094;11.838;2023-12-14T04:24:35;6.03;;;2.13;;
70558;SDS011;58108;48.094;11.838;2023-12-14T04:27:01;4.73;;;1.27;;
70558;SDS011;58108;48.094;11.838;2023-12-14T04:29:26;6.38;;;1.90;;
70558;SDS011;58108;48.094;11.838;2023-12-14T04:31:52;5.20;;;1.90;;
70558;SDS011;58108;48.094;11.838;2023-12-14T04:34:18;3.67;;;1.17;;
70558;SDS011;58108;48.094;11.838;2023-12-14T04:36:45;6.77;;;2.67;;
70558;SDS011;58108;48.094;11.838;2023-12-14T04:39:11;5.32;;;2.00;;
70558;SDS011;58108;48.094;11.838;2023-12-14T04:41:36;6.72;;;2.35;;
70558;SDS011;58108;48.094;11.838;2023-12-14T04:44:03;4.18;;;1.60;;
70558;SDS011;58108;48.094;11.838;2023-12-14T04:46:29;3.95;;;0.98;;
70558;SDS011;58108;48.094;11.838;2023-12-14T04:48:54;5.07;;;1.77;;
70558;SDS011;58108;48.094;11.838;2023-12-14T04:51:21;5.27;;;1.80;;
70558;SDS011;58108;48.094;11.838;2023-12-14T04:53:46;6.65;;;2.38;;
70558;SDS011;58108;48.094;11.838;2023-12-14T04:56:12;4.03;;;1.23;;
70558;SDS011;58108;48.094;11.838;2023-12-14T04:58:38;4.78;;;1.15;;
70558;SDS011;58108;48.094;11.838;2023-12-14T05:01:05;4.15;;;1.83;;
70558;SDS011;58108;48.094;11.838;2023-12-14T05:03:30;5.15;;;1.42;;
70558;SDS011;58108;48.094;11.838;2023-12-14T05:05:56;1.98;;;0.63;;
70558;SDS011;58108;48.094;11.838;2023-12-14T05:08:21;4.13;;;1.40;;
70558;SDS011;58108;48.094;11.838;2023-12-14T05:10:47;4.33;;;1.40;;
70558;SDS011;58108;48.094;11.838;2023-12-14T05:13:13;1.95;;;0.57;;
70558;SDS011;58108;48.094;11.838;2023-12-14T05:15:38;6.23;;;1.97;;
70558;SDS011;58108;48.094;11.838;2023-12-14T05:18:04;5.30;;;1.30;;
70558;SDS011;58108;48.094;11.838;2023-12-14T05:20:29;4.70;;;1.55;;
70558;SDS011;58108;48.094;11.838;2023-12-14T05:22:55;4.87;;;1.33;;
70558;SDS011;58108;48.094;11.838;2023-12-14T05:25:20;4.57;;;1.10;;
70558;SDS011;58108;48.094;11.838;2023-12-14T05:27:46;2.42;;;0.55;;
70558;SDS011;58108;48.094;11.838;2023-12-14T05:30:12;3.90;;;0.80;;
70558;SDS011;58108;48.094;11.838;2023-12-14T05:32:37;3.17;;;0.82;;
70558;SDS011;58108;48.094;11.838;2023-12-14T05:35:03;3.43;;;0.90;;
70558;SDS011;58108;48.094;11.838;2023-12-14T05:37:29;4.73;;;0.97;;
70558;SDS011;58108;48.094;11.838;2023-12-14T05:39:54;3.30;;;1.00;;
70558;SDS011;58108;48.094;11.838;2023-12-14T05:42:19;4.03;;;1.03;;
70558;SDS011;58108;48.094;11.838;2023-12-14T05:44:45;4.17;;;1.00;;
70558;SDS011;58108;48.094;11.838;2023-12-14T05:47:11;3.38;;;0.70;;
70558;SDS011;58108;48.094;11.838;2023-12-14T05:49:36;3.03;;;0.63;;
70558;SDS011;58108;48.094;11.838;2023-12-14T05:52:02;3.05;;;0.80;;
70558;SDS011;58108;48.094;11.838;2023-12-14T05:54:28;3.20;;;1.07;;
70558;SDS011;58108;48.094;11.838;2023-12-14T05:56:54;3.08;;;0.63;;
70558;SDS011;58108;48.094;11.838;2023-12-14T05:59:19;5.13;;;1.10;;
70558;SDS011;58108;48.094;11.838;2023-12-14T06:01:45;3.67;;;0.90;;
70558;SDS011;58108;48.094;11.838;2023-12-14T06:04:10;4.03;;;1.25;;
70558;SDS011;58108;48.094;11.838;2023-12-14T06:06:37;4.03;;;1.00;;
70558;SDS011;58108;48.094;11.838;2023-12-14T06:09:04;3.47;;;1.05;;
70558;SDS011;58108;48.094;11.838;2023-12-14T06:11:32;4.73;;;1.40;;
70558;SDS011;58108;48.094;11.838;2023-12-14T06:13:58;3.88;;;1.02;;
70558;SDS011;58108;48.094;11.838;2023-12-14T06:16:25;4.03;;;1.02;;
70558;SDS011;58108;48.094;11.838;2023-12-14T06:18:50;3.87;;;1.40;;
70558;SDS011;58108;48.094;11.838;2023-12-14T06:21:16;3.47;;;0.82;;
70558;SDS011;58108;48.094;11.838;2023-12-14T06:23:41;4.63;;;1.40;;
70558;SDS011;58108;48.094;11.838;2023-12-14T06:26:07;3.50;;;1.00;;
70558;SDS011;58108;48.094;11.838;2023-12-14T06:28:32;4.07;;;1.20;;
70558;SDS011;58108;48.094;11.838;2023-12-14T06:30:58;3.20;;;0.93;;
70558;SDS011;58108;48.094;11.838;2023-12-14T06:33:24;5.32;;;1.50;;
70558;SDS011;58108;48.094;11.838;2023-12-14T06:35:49;4.35;;;1.55;;
70558;SDS011;58108;48.094;11.838;2023-12-14T06:38:15;3.97;;;1.00;;
70558;SDS011;58108;48.094;11.838;2023-12-14T06:40:40;5.47;;;1.08;;
70558;SDS011;58108;48.094;11.838;2023-12-14T06:43:06;6.93;;;1.90;;
70558;SDS011;58108;48.094;11.838;2023-12-14T06:45:32;4.90;;;1.20;;
70558;SDS011;58108;48.094;11.838;2023-12-14T06:47:57;5.00;;;1.55;;
70558;SDS011;58108;48.094;11.838;2023-12-14T06:50:22;4.77;;;1.57;;
70558;SDS011;58108;48.094;11.838;2023-12-14T06:52:48;4.67;;;1.43;;
70558;SDS011;58108;48.094;11.838;2023-12-14T06:55:14;6.65;;;1.75;;
70558;SDS011;58108;48.094;11.838;2023-12-14T06:57:43;5.63;;;1.73;;
70558;SDS011;58108;48.094;11.838;2023-12-14T07:00:09;7.13;;;2.08;;
70558;SDS011;58108;48.094;11.838;2023-12-14T07:02:35;4.47;;;1.15;;
70558;SDS011;58108;48.094;11.838;2023-12-14T07:05:01;6.10;;;1.70;;
70558;SDS011;58108;48.094;11.838;2023-12-14T07:07:26;5.00;;;1.73;;
70558;SDS011;58108;48.094;11.838;2023-12-14T07:09:52;6.17;;;2.27;;
70558;SDS011;58108;48.094;11.838;2023-12-14T07:12:17;5.20;;;1.60;;
70558;SDS011;58108;48.094;11.838;2023-12-14T07:14:44;6.85;;;2.20;;
70558;SDS011;58108;48.094;11.838;2023-12-14T07:17:10;7.83;;;2.57;;
70558;SDS011;58108;48.094;11.838;2023-12-14T07:19:35;7.10;;;2.03;;
70558;SDS011;58108;48.094;11.838;2023-12-14T07:22:01;8.03;;;2.50;;
70558;SDS011;58108;48.094;11.838;2023-12-14T07:24:26;6.00;;;1.83;;
70558;SDS011;58108;48.094;11.838;2023-12-14T07:26:52;8.00;;;2.28;;
70558;SDS011;58108;48.094;11.838;2023-12-14T07:29:17;7.73;;;2.40;;
70558;SDS011;58108;48.094;11.838;2023-12-14T07:31:43;7.05;;;2.28;;
70558;SDS011;58108;48.094;11.838;2023-12-14T07:34:09;7.67;;;2.90;;
70558;SDS011;58108;48.094;11.838;2023-12-14T07:36:34;8.23;;;2.63;;
70558;SDS011;58108;48.094;11.838;2023-12-14T07:39:00;6.97;;;2.40;;
70558;SDS011;58108;48.094;11.838;2023-12-14T07:41:26;7.25;;;2.45;;
70558;SDS011;58108;48.094;11.838;2023-12-14T07:43:57;7.75;;;2.40;;
70558;SDS011;58108;48.094;11.838;2023-12-14T07:46:23;6.82;;;2.30;;
70558;SDS011;58108;48.094;11.838;2023-12-14T07:48:49;5.82;;;1.90;;
70558;SDS011;58108;48.094;11.838;2023-12-14T07:51:15;7.15;;;2.20;;
70558;SDS011;58108;48.094;11.838;2023-12-14T07:53:40;6.17;;;1.80;;
70558;SDS011;58108;48.094;11.838;2023-12-14T07:56:07;5.72;;;2.00;;
70558;SDS011;58108;48.094;11.838;2023-12-14T07:58:33;8.60;;;2.40;;
70558;SDS011;58108;48.094;11.838;2023-12-14T08:00:59;7.63;;;2.40;;
70558;SDS011;58108;48.094;11.838;2023-12-14T08:03:24;7.50;;;2.40;;
70558;SDS011;58108;48.094;11.838;2023-12-14T08:05:50;4.05;;;1.20;;
70558;SDS011;58108;48.094;11.838;2023-12-14T08:08:16;8.15;;;2.10;;
70558;SDS011;58108;48.094;11.838;2023-12-14T08:10:41;4.17;;;1.80;;
70558;SDS011;58108;48.094;11.838;2023-12-14T08:13:07;5.83;;;1.90;;
70558;SDS011;58108;48.094;11.838;2023-12-14T08:15:32;7.93;;;2.10;;
70558;SDS011;58108;48.094;11.838;2023-12-14T08:17:58;7.40;;;2.15;;
70558;SDS011;58108;48.094;11.838;2023-12-14T08:20:24;6.67;;;1.90;;
70558;SDS011;58108;48.094;11.838;2023-12-14T08:22:49;1.92;;;0.43;;
70558;SDS011;58108;48.094;11.838;2023-12-14T08:25:15;5.23;;;1.37;;
70558;SDS011;58108;48.094;11.838;2023-12-14T08:27:41;5.57;;;1.97;;
70558;SDS011;58108;48.094;11.838;2023-12-14T08:30:07;6.75;;;1.75;;
70558;SDS011;58108;48.094;11.838;2023-12-14T08:32:33;8.25;;;2.42;;
70558;SDS011;58108;48.094;11.838;2023-12-14T08:34:59;5.53;;;1.20;;
70558;SDS011;58108;48.094;11.838;2023-12-14T08:37:25;5.05;;;1.42;;
70558;SDS011;58108;48.094;11.838;2023-12-14T08:39:50;8.97;;;2.70;;
70558;SDS011;58108;48.094;11.838;2023-12-14T08:42:16;7.53;;;2.43;;
70558;SDS011;58108;48.094;11.838;2023-12-14T08:44:41;8.68;;;2.40;;
70558;SDS011;58108;48.094;11.838;2023-12-14T08:47:07;7.90;;;2.47;;
70558;SDS011;58108;48.094;11.838;2023-12-14T08:49:34;8.30;;;2.35;;
70558;SDS011;58108;48.094;11.838;2023-12-14T08:52:00;7.10;;;2.23;;
70558;SDS011;58108;48.094;11.838;2023-12-14T08:54:26;5.18;;;2.17;;
70558;SDS011;58108;48.094;11.838;2023-12-14T08:56:51;7.03;;;1.88;;
70558;SDS011;58108;48.094;11.838;2023-12-14T08:59:17;5.47;;;1.42;;
70558;SDS011;58108;48.094;11.838;2023-12-14T09:01:45;6.18;;;2.00;;
70558;SDS011;58108;48.094;11.838;2023-12-14T09:04:11;5.53;;;1.80;;
70558;SDS011;58108;48.094;11.838;2023-12-14T09:06:37;7.45;;;1.92;;
70558;SDS011;58108;48.094;11.838;2023-12-14T09:09:02;6.00;;;1.60;;
70558;SDS011;58108;48.094;11.838;2023-12-14T09:11:28;7.03;;;2.00;;
70558;SDS011;58108;48.094;11.838;2023-12-14T09:13:54;8.25;;;2.88;;
70558;SDS011;58108;48.094;11.838;2023-12-14T09:16:20;7.32;;;2.20;;
70558;SDS011;58108;48.094;11.838;2023-12-14T09:18:46;7.80;;;2.30;;
70558;SDS011;58108;48.094;11.838;2023-12-14T09:21:12;6.07;;;1.67;;
70558;SDS011;58108;48.094;11.838;2023-12-14T09:23:37;3.30;;;1.03;;
70558;SDS011;58108;48.094;11.838;2023-12-14T09:26:03;6.10;;;2.17;;
70558;SDS011;58108;48.094;11.838;2023-12-14T09:28:29;6.15;;;2.22;;
70558;SDS011;58108;48.094;11.838;2023-12-14T09:30:54;6.20;;;1.73;;
70558;SDS011;58108;48.094;11.838;2023-12-14T09:33:19;9.13;;;2.30;;
70558;SDS011;58108;48.094;11.838;2023-12-14T09:35:45;5.13;;;1.75;;
70558;SDS011;58108;48.094;11.838;2023-12-14T09:38:11;8.70;;;2.10;;
70558;SDS011;58108;48.094;11.838;2023-12-14T09:40:39;5.72;;;1.88;;
70558;SDS011;58108;48.094;11.838;2023-12-14T09:43:05;6.20;;;2.28;;
70558;SDS011;58108;48.094;11.838;2023-12-14T09:45:30;8.20;;;2.20;;
70558;SDS011;58108;48.094;11.838;2023-12-14T09:47:59;6.82;;;2.20;;
70558;SDS011;58108;48.094;11.838;2023-12-14T09:50:26;4.85;;;1.60;;
70558;SDS011;58108;48.094;11.838;2023-12-14T09:52:51;7.22;;;1.95;;
70558;SDS011;58108;48.094;11.838;2023-12-14T09:55:17;4.70;;;1.83;;
70558;SDS011;58108;48.094;11.838;2023-12-14T09:57:43;5.47;;;1.85;;
70558;SDS011;58108;48.094;11.838;2023-12-14T10:00:08;7.43;;;2.10;;
70558;SDS011;58108;48.094;11.838;2023-12-14T10:02:39;4.20;;;1.60;;
70558;SDS011;58108;48.094;11.838;2023-12-14T10:05:07;4.80;;;2.10;;
70558;SDS011;58108;48.094;11.838;2023-12-14T10:07:40;6.40;;;2.30;;
70558;SDS011;58108;48.094;11.838;2023-12-14T10:10:12;5.85;;;1.80;;
70558;SDS011;58108;48.094;11.838;2023-12-14T10:12:52;6.45;;;2.13;;
70558;SDS011;58108;48.094;11.838;2023-12-14T10:15:19;6.32;;;2.47;;
70558;SDS011;58108;48.094;11.838;2023-12-14T10:17:45;6.87;;;2.03;;
70558;SDS011;58108;48.094;11.838;2023-12-14T10:20:19;7.15;;;2.30;;
70558;SDS011;58108;48.094;11.838;2023-12-14T10:22:48;3.75;;;1.58;;
70558;SDS011;58108;48.094;11.838;2023-12-14T10:25:14;2.55;;;0.95;;
70558;SDS011;58108;48.094;11.838;2023-12-14T10:27:40;3.27;;;0.93;;
70558;SDS011;58108;48.094;11.838;2023-12-14T10:30:06;4.97;;;1.33;;
70558;SDS011;58108;48.094;11.838;2023-12-14T10:32:33;4.20;;;1.40;;
70558;SDS011;58108;48.094;11.838;2023-12-14T10:34:59;5.55;;;1.20;;
70558;SDS011;58108;48.094;11.838;2023-12-14T10:37:25;4.67;;;1.53;;
70558;SDS011;58108;48.094;11.838;2023-12-14T10:39:51;4.50;;;1.50;;
70558;SDS011;58108;48.094;11.838;2023-12-14T10:42:18;4.28;;;1.35;;
70558;SDS011;58108;48.094;11.838;2023-12-14T10:44:48;4.63;;;1.60;;
70558;SDS011;58108;48.094;11.838;2023-12-14T10:47:18;5.07;;;1.55;;
70558;SDS011;58108;48.094;11.838;2023-12-14T10:49:46;5.18;;;1.75;;
70558;SDS011;58108;48.094;11.838;2023-12-14T10:52:15;5.25;;;1.42;;
70558;SDS011;58108;48.094;11.838;2023-12-14T10:54:41;4.05;;;1.15;;
70558;SDS011;58108;48.094;11.838;2023-12-14T10:57:07;4.27;;;1.40;;
70558;SDS011;58108;48.094;11.838;2023-12-14T10:59:34;3.10;;;1.00;;
70558;SDS011;58108;48.094;11.838;2023-12-14T11:02:00;6.28;;;1.65;;
70558;SDS011;58108;48.094;11.838;2023-12-14T11:04:54;5.05;;;1.60;;
70558;SDS011;58108;48.094;11.838;2023-12-14T11:08:07;4.50;;;1.80;;
70558;SDS011;58108;48.094;11.838;2023-12-14T11:10:26;4.47;;;1.65;;
70558;SDS011;58108;48.094;11.838;2023-12-14T11:12:56;7.50;;;2.30;;
70558;SDS011;58108;48.094;11.838;2023-12-14T11:15:25;5.00;;;1.98;;
70558;SDS011;58108;48.094;11.838;2023-12-14T11:23:15;4.13;;;1.60;;
70558;SDS011;58108;48.094;11.838;2023-12-14T11:25:43;5.50;;;1.50;;
70558;SDS011;58108;48.094;11.838;2023-12-14T11:28:09;2.85;;;0.82;;
70558;SDS011;58108;48.094;11.838;2023-12-14T11:30:35;2.55;;;0.40;;
70558;SDS011;58108;48.094;11.838;2023-12-14T11:33:02;3.07;;;0.60;;
70558;SDS011;58108;48.094;11.838;2023-12-14T11:35:28;2.88;;;0.68;;
70558;SDS011;58108;48.094;11.838;2023-12-14T11:37:54;4.95;;;0.93;;
70558;SDS011;58108;48.094;11.838;2023-12-14T11:40:22;2.42;;;0.60;;
70558;SDS011;58108;48.094;11.838;2023-12-14T11:43:01;2.80;;;0.80;;
70558;SDS011;58108;48.094;11.838;2023-12-14T11:45:38;3.50;;;0.88;;
70558;SDS011;58108;48.094;11.838;2023-12-14T11:48:05;2.95;;;0.77;;
70558;SDS011;58108;48.094;11.838;2023-12-14T11:50:32;3.53;;;1.00;;
70558;SDS011;58108;48.094;11.838;2023-12-14T11:52:59;3.58;;;0.90;;
70558;SDS011;58108;48.094;11.838;2023-12-14T11:55:26;4.90;;;1.30;;
70558;SDS011;58108;48.094;11.838;2023-12-14T11:57:52;2.70;;;0.90;;
70558;SDS011;58108;48.094;11.838;2023-12-14T12:00:18;2.83;;;0.65;;
70558;SDS011;58108;48.094;11.838;2023-12-14T12:02:49;2.90;;;0.70;;
70558;SDS011;58108;48.094;11.838;2023-12-14T12:05:14;2.43;;;0.83;;
70558;SDS011;58108;48.094;11.838;2023-12-14T12:07:47;3.35;;;1.00;;
70558;SDS011;58108;48.094;11.838;2023-12-14T12:10:13;3.90;;;0.80;;
70558;SDS011;58108;48.094;11.838;2023-12-14T12:12:38;3.58;;;1.42;;
70558;SDS011;58108;48.094;11.838;2023-12-14T12:15:04;3.73;;;1.40;;
70558;SDS011;58108;48.094;11.838;2023-12-14T12:17:30;3.35;;;1.25;;
70558;SDS011;58108;48.094;11.838;2023-12-14T12:20:03;5.30;;;1.10;;
70558;SDS011;58108;48.094;11.838;2023-12-14T12:22:30;4.68;;;1.20;;
70558;SDS011;58108;48.094;11.838;2023-12-14T12:24:55;3.60;;;1.00;;
70558;SDS011;58108;48.094;11.838;2023-12-14T12:27:22;2.83;;;0.60;;
70558;SDS011;58108;48.094;11.838;2023-12-14T12:29:48;4.80;;;1.13;;
70558;SDS011;58108;48.094;11.838;2023-12-14T12:32:14;5.30;;;0.80;;
70558;SDS011;58108;48.094;11.838;2023-12-14T12:34:39;3.65;;;0.93;;
70558;SDS011;58108;48.094;11.838;2023-12-14T12:37:05;2.90;;;0.80;;
70558;SDS011;58108;48.094;11.838;2023-12-14T12:39:31;3.20;;;0.95;;
70558;SDS011;58108;48.094;11.838;2023-12-14T12:41:56;2.77;;;1.03;;
70558;SDS011;58108;48.094;11.838;2023-12-14T12:44:22;5.27;;;1.10;;
70558;SDS011;58108;48.094;11.838;2023-12-14T12:46:47;3.90;;;1.27;;
70558;SDS011;58108;48.094;11.838;2023-12-14T12:49:13;2.08;;;0.80;;
70558;SDS011;58108;48.094;11.838;2023-12-14T12:51:38;3.60;;;1.00;;
70558;SDS011;58108;48.094;11.838;2023-12-14T12:54:04;2.33;;;0.50;;
70558;SDS011;58108;48.094;11.838;2023-12-14T12:56:29;4.47;;;1.47;;
70558;SDS011;58108;48.094;11.838;2023-12-14T12:58:56;4.28;;;0.90;;
70558;SDS011;58108;48.094;11.838;2023-12-14T13:01:22;3.72;;;0.70;;
70558;SDS011;58108;48.094;11.838;2023-12-14T13:03:52;3.70;;;0.90;;
70558;SDS011;58108;48.094;11.838;2023-12-14T13:06:20;3.75;;;1.00;;
70558;SDS011;58108;48.094;11.838;2023-12-14T13:08:46;3.78;;;0.98;;
70558;SDS011;58108;48.094;11.838;2023-12-14T13:11:12;4.30;;;1.57;;
70558;SDS011;58108;48.094;11.838;2023-12-14T13:13:38;3.33;;;1.10;;
70558;SDS011;58108;48.094;11.838;2023-12-14T13:16:05;3.97;;;0.88;;
70558;SDS011;58108;48.094;11.838;2023-12-14T13:18:30;4.23;;;0.93;;
70558;SDS011;58108;48.094;11.838;2023-12-14T13:20:56;4.97;;;1.15;;
70558;SDS011;58108;48.094;11.838;2023-12-14T13:23:22;2.37;;;0.60;;
70558;SDS011;58108;48.094;11.838;2023-12-14T13:25:48;2.92;;;0.93;;
70558;SDS011;58108;48.094;11.838;2023-12-14T13:28:14;4.53;;;0.90;;
70558;SDS011;58108;48.094;11.838;2023-12-14T13:30:39;3.92;;;1.20;;
70558;SDS011;58108;48.094;11.838;2023-12-14T13:33:06;4.90;;;1.08;;
70558;SDS011;58108;48.094;11.838;2023-12-14T13:35:34;5.15;;;1.38;;
70558;SDS011;58108;48.094;11.838;2023-12-14T13:38:00;6.35;;;1.40;;
70558;SDS011;58108;48.094;11.838;2023-12-14T13:40:26;4.10;;;1.10;;
70558;SDS011;58108;48.094;11.838;2023-12-14T13:42:51;4.97;;;1.30;;
70558;SDS011;58108;48.094;11.838;2023-12-14T13:45:18;4.55;;;1.10;;
70558;SDS011;58108;48.094;11.838;2023-12-14T13:47:44;3.33;;;0.95;;
70558;SDS011;58108;48.094;11.838;2023-12-14T13:50:09;3.50;;;0.93;;
70558;SDS011;58108;48.094;11.838;2023-12-14T13:52:35;2.70;;;0.83;;
70558;SDS011;58108;48.094;11.838;2023-12-14T13:55:00;4.05;;;0.90;;
70558;SDS011;58108;48.094;11.838;2023-12-14T13:57:26;3.37;;;1.20;;
70558;SDS011;58108;48.094;11.838;2023-12-14T13:59:52;3.55;;;1.00;;
70558;SDS011;58108;48.094;11.838;2023-12-14T14:02:18;3.27;;;1.10;;
70558;SDS011;58108;48.094;11.838;2023-12-14T14:04:44;3.33;;;0.90;;
70558;SDS011;58108;48.094;11.838;2023-12-14T14:07:10;4.03;;;1.10;;
70558;SDS011;58108;48.094;11.838;2023-12-14T14:09:35;3.33;;;1.10;;
70558;SDS011;58108;48.094;11.838;2023-12-14T14:12:01;3.07;;;0.70;;
70558;SDS011;58108;48.094;11.838;2023-12-14T14:14:26;3.27;;;1.10;;
70558;SDS011;58108;48.094;11.838;2023-12-14T14:16:52;3.25;;;0.63;;
70558;SDS011;58108;48.094;11.838;2023-12-14T14:19:17;2.90;;;0.83;;
70558;SDS011;58108;48.094;11.838;2023-12-14T14:21:43;2.60;;;0.60;;
70558;SDS011;58108;48.094;11.838;2023-12-14T14:24:08;2.30;;;0.60;;
70558;SDS011;58108;48.094;11.838;2023-12-14T14:26:34;3.67;;;0.85;;
70558;SDS011;58108;48.094;11.838;2023-12-14T14:28:59;3.43;;;0.70;;
70558;SDS011;58108;48.094;11.838;2023-12-14T14:31:30;5.40;;;1.73;;
70558;SDS011;58108;48.094;11.838;2023-12-14T14:34:00;5.97;;;2.00;;
70558;SDS011;58108;48.094;11.838;2023-12-14T14:36:26;3.37;;;0.83;;
70558;SDS011;58108;48.094;11.838;2023-12-14T14:38:52;3.95;;;1.00;;
70558;SDS011;58108;48.094;11.838;2023-12-14T14:41:19;2.67;;;0.52;;
70558;SDS011;58108;48.094;11.838;2023-12-14T14:43:45;3.63;;;1.03;;
70558;SDS011;58108;48.094;11.838;2023-12-14T14:46:11;3.42;;;1.05;;
70558;SDS011;58108;48.094;11.838;2023-12-14T14:48:37;4.73;;;1.20;;
70558;SDS011;58108;48.094;11.838;2023-12-14T14:51:03;2.80;;;1.20;;